sensor_id;sensor_type;location;lat;lon;timestamp;temperature;humidity
16686;DHT22;8456;51.136;4.210;2022-08-03T00:01:58;21.40;99.90
16686;DHT22;8456;51.136;4.210;2022-08-03T00:04:24;21.40;99.90
16686;DHT22;8456;51.136;4.210;2022-08-03T00:06:50;21.40;99.90
16686;DHT22;8456;51.136;4.210;2022-08-03T00:09:15;21.30;99.90
16686;DHT22;8456;51.136;4.210;2022-08-03T00:11:41;21.20;99.90
16686;DHT22;8456;51.136;4.210;2022-08-03T00:14:07;21.20;99.90
16686;DHT22;8456;51.136;4.210;2022-08-03T00:16:33;21.10;99.90
16686;DHT22;8456;51.136;4.210;2022-08-03T00:19:00;21.10;99.90
16686;DHT22;8456;51.136;4.210;2022-08-03T00:21:25;21.00;99.90
16686;DHT22;8456;51.136;4.210;2022-08-03T00:23:52;21.10;99.90
16686;DHT22;8456;51.136;4.210;2022-08-03T00:26:21;21.10;99.90
16686;DHT22;8456;51.136;4.210;2022-08-03T00:28:48;21.00;99.90
16686;DHT22;8456;51.136;4.210;2022-08-03T00:31:14;21.00;99.90
16686;DHT22;8456;51.136;4.210;2022-08-03T00:33:39;20.90;99.90
16686;DHT22;8456;51.136;4.210;2022-08-03T00:36:06;20.90;99.90
16686;DHT22;8456;51.136;4.210;2022-08-03T00:38:31;20.90;99.90
16686;DHT22;8456;51.136;4.210;2022-08-03T00:40:57;20.90;99.90
16686;DHT22;8456;51.136;4.210;2022-08-03T00:43:26;20.90;99.90
16686;DHT22;8456;51.136;4.210;2022-08-03T00:45:52;20.80;99.90
16686;DHT22;8456;51.136;4.210;2022-08-03T00:48:19;20.90;99.90
16686;DHT22;8456;51.136;4.210;2022-08-03T00:50:45;20.90;99.90
16686;DHT22;8456;51.136;4.210;2022-08-03T00:53:13;20.90;99.90
16686;DHT22;8456;51.136;4.210;2022-08-03T00:55:40;20.90;99.90
16686;DHT22;8456;51.136;4.210;2022-08-03T00:58:07;20.90;99.90
16686;DHT22;8456;51.136;4.210;2022-08-03T01:00:34;20.90;99.90
16686;DHT22;8456;51.136;4.210;2022-08-03T01:03:01;20.80;99.90
16686;DHT22;8456;51.136;4.210;2022-08-03T01:05:28;20.80;99.90
16686;DHT22;8456;51.136;4.210;2022-08-03T01:13:33;20.80;99.90
16686;DHT22;8456;51.136;4.210;2022-08-03T01:16:08;20.70;99.90
16686;DHT22;8456;51.136;4.210;2022-08-03T01:18:43;20.70;99.90
16686;DHT22;8456;51.136;4.210;2022-08-03T01:21:17;20.70;99.90
16686;DHT22;8456;51.136;4.210;2022-08-03T01:24:02;20.60;99.90
16686;DHT22;8456;51.136;4.210;2022-08-03T01:29:38;20.60;99.90
16686;DHT22;8456;51.136;4.210;2022-08-03T01:32:04;20.50;99.90
16686;DHT22;8456;51.136;4.210;2022-08-03T01:34:35;20.60;99.90
16686;DHT22;8456;51.136;4.210;2022-08-03T01:37:04;20.60;99.90
16686;DHT22;8456;51.136;4.210;2022-08-03T01:39:32;20.60;99.90
16686;DHT22;8456;51.136;4.210;2022-08-03T01:42:00;20.50;99.90
16686;DHT22;8456;51.136;4.210;2022-08-03T01:44:34;20.50;99.90
16686;DHT22;8456;51.136;4.210;2022-08-03T01:47:02;20.60;99.90
16686;DHT22;8456;51.136;4.210;2022-08-03T01:49:36;20.60;99.90
16686;DHT22;8456;51.136;4.210;2022-08-03T01:52:04;20.50;99.90
16686;DHT22;8456;51.136;4.210;2022-08-03T01:54:35;20.40;99.90
16686;DHT22;8456;51.136;4.210;2022-08-03T01:57:02;20.30;99.90
16686;DHT22;8456;51.136;4.210;2022-08-03T01:59:29;20.30;99.90
16686;DHT22;8456;51.136;4.210;2022-08-03T02:01:59;20.30;99.90
16686;DHT22;8456;51.136;4.210;2022-08-03T02:04:25;20.30;99.90
16686;DHT22;8456;51.136;4.210;2022-08-03T02:06:53;20.30;99.90
16686;DHT22;8456;51.136;4.210;2022-08-03T02:09:20;20.30;99.90
16686;DHT22;8456;51.136;4.210;2022-08-03T02:11:47;20.30;99.90
16686;DHT22;8456;51.136;4.210;2022-08-03T02:14:15;20.20;99.90
16686;DHT22;8456;51.136;4.210;2022-08-03T02:16:43;20.30;99.90
16686;DHT22;8456;51.136;4.210;2022-08-03T02:19:11;20.20;99.90
16686;DHT22;8456;51.136;4.210;2022-08-03T02:21:37;20.20;99.90
16686;DHT22;8456;51.136;4.210;2022-08-03T02:24:04;20.30;99.90
16686;DHT22;8456;51.136;4.210;2022-08-03T02:26:31;20.20;99.90
16686;DHT22;8456;51.136;4.210;2022-08-03T02:29:02;20.20;99.90
16686;DHT22;8456;51.136;4.210;2022-08-03T02:31:30;20.10;99.90
16686;DHT22;8456;51.136;4.210;2022-08-03T02:34:00;20.10;99.90
16686;DHT22;8456;51.136;4.210;2022-08-03T02:36:29;20.00;99.90
16686;DHT22;8456;51.136;4.210;2022-08-03T02:38:58;20.00;99.90
16686;DHT22;8456;51.136;4.210;2022-08-03T02:41:37;20.00;99.90
16686;DHT22;8456;51.136;4.210;2022-08-03T02:44:10;20.00;99.90
16686;DHT22;8456;51.136;4.210;2022-08-03T02:46:38;20.00;99.90
16686;DHT22;8456;51.136;4.210;2022-08-03T02:49:05;20.00;99.90
16686;DHT22;8456;51.136;4.210;2022-08-03T02:51:34;19.90;99.90
16686;DHT22;8456;51.136;4.210;2022-08-03T02:54:04;19.90;99.90
16686;DHT22;8456;51.136;4.210;2022-08-03T02:56:31;19.80;99.90
16686;DHT22;8456;51.136;4.210;2022-08-03T02:58:58;19.80;99.90
16686;DHT22;8456;51.136;4.210;2022-08-03T03:01:26;19.80;99.90
16686;DHT22;8456;51.136;4.210;2022-08-03T03:03:55;19.80;99.90
16686;DHT22;8456;51.136;4.210;2022-08-03T03:06:23;19.70;99.90
16686;DHT22;8456;51.136;4.210;2022-08-03T03:08:51;19.70;99.90
16686;DHT22;8456;51.136;4.210;2022-08-03T03:11:20;19.70;99.90
16686;DHT22;8456;51.136;4.210;2022-08-03T03:13:48;19.70;99.90
16686;DHT22;8456;51.136;4.210;2022-08-03T03:16:15;19.70;99.90
16686;DHT22;8456;51.136;4.210;2022-08-03T03:18:43;19.60;99.90
16686;DHT22;8456;51.136;4.210;2022-08-03T03:21:09;19.60;99.90
16686;DHT22;8456;51.136;4.210;2022-08-03T03:23:37;19.60;99.90
16686;DHT22;8456;51.136;4.210;2022-08-03T03:26:04;19.60;99.90
16686;DHT22;8456;51.136;4.210;2022-08-03T03:28:30;19.60;99.90
16686;DHT22;8456;51.136;4.210;2022-08-03T03:30:57;19.60;99.90
16686;DHT22;8456;51.136;4.210;2022-08-03T03:33:23;19.60;99.90
16686;DHT22;8456;51.136;4.210;2022-08-03T03:35:49;19.60;99.90
16686;DHT22;8456;51.136;4.210;2022-08-03T03:38:16;19.60;99.90
16686;DHT22;8456;51.136;4.210;2022-08-03T03:40:43;19.50;99.90
16686;DHT22;8456;51.136;4.210;2022-08-03T03:43:12;19.60;99.90
16686;DHT22;8456;51.136;4.210;2022-08-03T03:45:40;19.60;99.90
16686;DHT22;8456;51.136;4.210;2022-08-03T03:48:07;19.60;99.90
16686;DHT22;8456;51.136;4.210;2022-08-03T03:50:34;19.60;99.90
16686;DHT22;8456;51.136;4.210;2022-08-03T03:53:01;19.50;99.90
16686;DHT22;8456;51.136;4.210;2022-08-03T03:55:27;19.50;99.90
16686;DHT22;8456;51.136;4.210;2022-08-03T03:57:53;19.40;99.90
16686;DHT22;8456;51.136;4.210;2022-08-03T04:00:19;19.40;99.90
16686;DHT22;8456;51.136;4.210;2022-08-03T04:02:46;19.50;99.90
16686;DHT22;8456;51.136;4.210;2022-08-03T04:05:13;19.50;99.90
16686;DHT22;8456;51.136;4.210;2022-08-03T04:08:00;19.50;99.90
16686;DHT22;8456;51.136;4.210;2022-08-03T04:13:28;19.40;99.90
16686;DHT22;8456;51.136;4.210;2022-08-03T04:15:56;19.50;99.90
16686;DHT22;8456;51.136;4.210;2022-08-03T04:18:24;19.50;99.90
16686;DHT22;8456;51.136;4.210;2022-08-03T04:20:52;19.50;99.90
16686;DHT22;8456;51.136;4.210;2022-08-03T04:23:21;19.40;99.90
16686;DHT22;8456;51.136;4.210;2022-08-03T04:25:50;19.40;99.90
16686;DHT22;8456;51.136;4.210;2022-08-03T04:28:17;19.40;99.90
16686;DHT22;8456;51.136;4.210;2022-08-03T04:30:46;19.40;99.90
16686;DHT22;8456;51.136;4.210;2022-08-03T04:33:14;19.30;99.90
16686;DHT22;8456;51.136;4.210;2022-08-03T04:35:42;19.30;99.90
16686;DHT22;8456;51.136;4.210;2022-08-03T04:38:10;19.30;99.90
16686;DHT22;8456;51.136;4.210;2022-08-03T04:40:40;19.30;99.90
16686;DHT22;8456;51.136;4.210;2022-08-03T04:43:09;19.40;99.90
16686;DHT22;8456;51.136;4.210;2022-08-03T04:45:36;19.40;99.90
16686;DHT22;8456;51.136;4.210;2022-08-03T04:48:03;19.40;99.90
16686;DHT22;8456;51.136;4.210;2022-08-03T04:50:29;19.50;99.90
16686;DHT22;8456;51.136;4.210;2022-08-03T04:53:05;19.50;99.90
16686;DHT22;8456;51.136;4.210;2022-08-03T04:55:32;19.50;99.90
16686;DHT22;8456;51.136;4.210;2022-08-03T04:57:59;19.50;99.90
16686;DHT22;8456;51.136;4.210;2022-08-03T05:00:25;19.50;99.90
16686;DHT22;8456;51.136;4.210;2022-08-03T05:02:52;19.50;99.90
16686;DHT22;8456;51.136;4.210;2022-08-03T05:05:21;19.60;99.90
16686;DHT22;8456;51.136;4.210;2022-08-03T05:07:47;19.70;99.90
16686;DHT22;8456;51.136;4.210;2022-08-03T05:10:14;19.70;99.90
16686;DHT22;8456;51.136;4.210;2022-08-03T05:12:41;19.80;99.90
16686;DHT22;8456;51.136;4.210;2022-08-03T05:15:07;19.80;99.90
16686;DHT22;8456;51.136;4.210;2022-08-03T05:17:33;19.80;99.90
16686;DHT22;8456;51.136;4.210;2022-08-03T05:19:59;19.90;99.90
16686;DHT22;8456;51.136;4.210;2022-08-03T05:22:26;19.90;99.90
16686;DHT22;8456;51.136;4.210;2022-08-03T05:24:52;20.00;99.90
16686;DHT22;8456;51.136;4.210;2022-08-03T05:27:17;20.00;99.90
16686;DHT22;8456;51.136;4.210;2022-08-03T05:29:44;20.20;99.90
16686;DHT22;8456;51.136;4.210;2022-08-03T05:32:10;20.20;99.90
16686;DHT22;8456;51.136;4.210;2022-08-03T05:34:36;20.20;99.90
16686;DHT22;8456;51.136;4.210;2022-08-03T05:37:02;20.20;99.90
16686;DHT22;8456;51.136;4.210;2022-08-03T05:39:28;20.30;99.90
16686;DHT22;8456;51.136;4.210;2022-08-03T05:41:54;20.40;99.90
16686;DHT22;8456;51.136;4.210;2022-08-03T05:44:20;20.50;99.90
16686;DHT22;8456;51.136;4.210;2022-08-03T05:46:46;20.70;99.90
16686;DHT22;8456;51.136;4.210;2022-08-03T05:49:12;20.80;99.90
16686;DHT22;8456;51.136;4.210;2022-08-03T05:51:38;20.90;99.90
16686;DHT22;8456;51.136;4.210;2022-08-03T05:54:03;20.90;99.90
16686;DHT22;8456;51.136;4.210;2022-08-03T05:56:29;21.00;99.90
16686;DHT22;8456;51.136;4.210;2022-08-03T05:58:55;21.10;99.90
16686;DHT22;8456;51.136;4.210;2022-08-03T06:01:21;21.30;99.90
16686;DHT22;8456;51.136;4.210;2022-08-03T06:03:48;21.60;99.90
16686;DHT22;8456;51.136;4.210;2022-08-03T06:06:15;21.90;99.90
16686;DHT22;8456;51.136;4.210;2022-08-03T06:08:41;22.20;99.90
16686;DHT22;8456;51.136;4.210;2022-08-03T06:11:08;22.70;99.90
16686;DHT22;8456;51.136;4.210;2022-08-03T06:13:34;23.80;99.90
16686;DHT22;8456;51.136;4.210;2022-08-03T06:16:01;24.60;99.90
16686;DHT22;8456;51.136;4.210;2022-08-03T06:18:26;25.50;99.90
16686;DHT22;8456;51.136;4.210;2022-08-03T06:20:53;26.60;99.90
16686;DHT22;8456;51.136;4.210;2022-08-03T06:23:19;27.70;99.90
16686;DHT22;8456;51.136;4.210;2022-08-03T06:25:45;28.70;99.90
16686;DHT22;8456;51.136;4.210;2022-08-03T06:28:11;29.50;99.90
16686;DHT22;8456;51.136;4.210;2022-08-03T06:30:39;30.00;99.90
16686;DHT22;8456;51.136;4.210;2022-08-03T06:33:06;30.70;99.90
16686;DHT22;8456;51.136;4.210;2022-08-03T06:35:32;31.30;99.90
16686;DHT22;8456;51.136;4.210;2022-08-03T06:37:58;31.60;99.90
16686;DHT22;8456;51.136;4.210;2022-08-03T06:40:24;31.60;99.90
16686;DHT22;8456;51.136;4.210;2022-08-03T06:42:55;32.00;99.90
16686;DHT22;8456;51.136;4.210;2022-08-03T06:45:21;32.30;99.90
16686;DHT22;8456;51.136;4.210;2022-08-03T06:47:46;32.90;99.90
16686;DHT22;8456;51.136;4.210;2022-08-03T06:50:12;33.20;99.90
16686;DHT22;8456;51.136;4.210;2022-08-03T06:52:38;33.40;99.90
16686;DHT22;8456;51.136;4.210;2022-08-03T06:55:05;33.60;99.90
16686;DHT22;8456;51.136;4.210;2022-08-03T06:57:30;33.50;99.90
16686;DHT22;8456;51.136;4.210;2022-08-03T06:59:56;33.70;99.90
16686;DHT22;8456;51.136;4.210;2022-08-03T07:02:27;33.60;99.90
16686;DHT22;8456;51.136;4.210;2022-08-03T07:04:53;34.00;99.90
16686;DHT22;8456;51.136;4.210;2022-08-03T07:07:19;34.50;99.90
16686;DHT22;8456;51.136;4.210;2022-08-03T07:09:45;34.60;99.30
16686;DHT22;8456;51.136;4.210;2022-08-03T07:12:12;33.90;99.70
16686;DHT22;8456;51.136;4.210;2022-08-03T07:14:38;34.40;99.00
16686;DHT22;8456;51.136;4.210;2022-08-03T07:17:04;33.80;99.10
16686;DHT22;8456;51.136;4.210;2022-08-03T07:19:29;33.20;99.30
16686;DHT22;8456;51.136;4.210;2022-08-03T07:21:55;33.40;99.80
16686;DHT22;8456;51.136;4.210;2022-08-03T07:24:24;33.40;99.40
16686;DHT22;8456;51.136;4.210;2022-08-03T07:26:50;33.90;99.40
16686;DHT22;8456;51.136;4.210;2022-08-03T07:29:15;34.20;99.20
16686;DHT22;8456;51.136;4.210;2022-08-03T07:31:41;34.70;98.90
16686;DHT22;8456;51.136;4.210;2022-08-03T07:34:07;34.70;98.50
16686;DHT22;8456;51.136;4.210;2022-08-03T07:36:32;35.00;97.60
16686;DHT22;8456;51.136;4.210;2022-08-03T07:38:58;35.60;97.60
16686;DHT22;8456;51.136;4.210;2022-08-03T07:41:24;35.50;96.60
16686;DHT22;8456;51.136;4.210;2022-08-03T07:43:50;35.20;96.90
16686;DHT22;8456;51.136;4.210;2022-08-03T07:46:15;35.50;97.10
16686;DHT22;8456;51.136;4.210;2022-08-03T07:48:41;35.80;96.10
16686;DHT22;8456;51.136;4.210;2022-08-03T07:51:08;35.90;96.00
16686;DHT22;8456;51.136;4.210;2022-08-03T07:53:34;36.30;95.50
16686;DHT22;8456;51.136;4.210;2022-08-03T07:55:59;36.30;95.40
16686;DHT22;8456;51.136;4.210;2022-08-03T07:58:25;36.00;95.90
16686;DHT22;8456;51.136;4.210;2022-08-03T08:00:51;36.40;95.70
16686;DHT22;8456;51.136;4.210;2022-08-03T08:03:17;36.70;95.10
16686;DHT22;8456;51.136;4.210;2022-08-03T08:05:43;36.90;95.10
16686;DHT22;8456;51.136;4.210;2022-08-03T08:08:09;37.30;94.40
16686;DHT22;8456;51.136;4.210;2022-08-03T08:10:35;37.20;94.30
16686;DHT22;8456;51.136;4.210;2022-08-03T08:13:02;36.90;94.20
16686;DHT22;8456;51.136;4.210;2022-08-03T08:15:28;37.30;93.80
16686;DHT22;8456;51.136;4.210;2022-08-03T08:17:56;36.90;93.70
16686;DHT22;8456;51.136;4.210;2022-08-03T08:20:25;36.80;93.70
16686;DHT22;8456;51.136;4.210;2022-08-03T08:22:51;36.70;93.90
16686;DHT22;8456;51.136;4.210;2022-08-03T08:25:17;36.90;93.80
16686;DHT22;8456;51.136;4.210;2022-08-03T08:27:46;37.50;93.90
16686;DHT22;8456;51.136;4.210;2022-08-03T08:30:14;37.90;93.50
16686;DHT22;8456;51.136;4.210;2022-08-03T08:32:40;37.70;92.70
16686;DHT22;8456;51.136;4.210;2022-08-03T08:35:07;37.30;92.90
16686;DHT22;8456;51.136;4.210;2022-08-03T08:37:34;37.00;93.10
16686;DHT22;8456;51.136;4.210;2022-08-03T08:40:00;36.90;92.80
16686;DHT22;8456;51.136;4.210;2022-08-03T08:42:26;37.00;93.50
16686;DHT22;8456;51.136;4.210;2022-08-03T08:44:52;36.50;93.20
16686;DHT22;8456;51.136;4.210;2022-08-03T08:47:23;36.70;93.60
16686;DHT22;8456;51.136;4.210;2022-08-03T08:49:53;36.90;93.00
16686;DHT22;8456;51.136;4.210;2022-08-03T08:52:24;36.60;93.10
16686;DHT22;8456;51.136;4.210;2022-08-03T08:54:57;36.60;93.20
16686;DHT22;8456;51.136;4.210;2022-08-03T08:57:28;36.70;93.30
16686;DHT22;8456;51.136;4.210;2022-08-03T08:59:55;36.70;93.50
16686;DHT22;8456;51.136;4.210;2022-08-03T09:02:29;36.70;93.20
16686;DHT22;8456;51.136;4.210;2022-08-03T09:04:55;37.00;92.70
16686;DHT22;8456;51.136;4.210;2022-08-03T09:07:21;36.60;92.70
16686;DHT22;8456;51.136;4.210;2022-08-03T09:09:47;36.80;92.90
16686;DHT22;8456;51.136;4.210;2022-08-03T09:12:14;36.70;92.50
16686;DHT22;8456;51.136;4.210;2022-08-03T09:14:39;36.70;92.20
16686;DHT22;8456;51.136;4.210;2022-08-03T09:17:05;36.50;92.50
16686;DHT22;8456;51.136;4.210;2022-08-03T09:19:32;36.50;92.40
16686;DHT22;8456;51.136;4.210;2022-08-03T09:22:10;36.60;92.60
16686;DHT22;8456;51.136;4.210;2022-08-03T09:24:38;36.50;92.60
16686;DHT22;8456;51.136;4.210;2022-08-03T09:27:18;35.90;92.70
16686;DHT22;8456;51.136;4.210;2022-08-03T09:29:47;36.40;92.70
16686;DHT22;8456;51.136;4.210;2022-08-03T09:32:14;36.50;93.30
16686;DHT22;8456;51.136;4.210;2022-08-03T09:34:41;36.50;93.10
16686;DHT22;8456;51.136;4.210;2022-08-03T09:37:14;36.80;92.20
16686;DHT22;8456;51.136;4.210;2022-08-03T09:39:40;37.20;92.30
16686;DHT22;8456;51.136;4.210;2022-08-03T09:44:38;37.30;91.90
16686;DHT22;8456;51.136;4.210;2022-08-03T09:47:05;37.40;91.60
16686;DHT22;8456;51.136;4.210;2022-08-03T09:49:31;37.00;91.80
16686;DHT22;8456;51.136;4.210;2022-08-03T09:52:00;37.10;91.90
16686;DHT22;8456;51.136;4.210;2022-08-03T09:54:31;37.40;91.80
16686;DHT22;8456;51.136;4.210;2022-08-03T09:56:57;37.90;91.60
16686;DHT22;8456;51.136;4.210;2022-08-03T09:59:26;37.80;91.00
16686;DHT22;8456;51.136;4.210;2022-08-03T10:01:54;37.60;90.90
16686;DHT22;8456;51.136;4.210;2022-08-03T10:04:20;37.40;90.90
16686;DHT22;8456;51.136;4.210;2022-08-03T10:07:06;37.10;91.10
16686;DHT22;8456;51.136;4.210;2022-08-03T10:09:34;36.60;91.40
16686;DHT22;8456;51.136;4.210;2022-08-03T10:12:10;36.50;91.60
16686;DHT22;8456;51.136;4.210;2022-08-03T10:14:38;36.50;91.70
16686;DHT22;8456;51.136;4.210;2022-08-03T10:17:04;36.30;91.50
16686;DHT22;8456;51.136;4.210;2022-08-03T10:19:30;36.30;91.80
16686;DHT22;8456;51.136;4.210;2022-08-03T10:22:02;36.30;91.80
16686;DHT22;8456;51.136;4.210;2022-08-03T10:24:29;36.20;91.70
16686;DHT22;8456;51.136;4.210;2022-08-03T10:27:18;36.50;91.70
16686;DHT22;8456;51.136;4.210;2022-08-03T10:29:46;36.50;91.60
16686;DHT22;8456;51.136;4.210;2022-08-03T10:32:30;36.40;91.50
16686;DHT22;8456;51.136;4.210;2022-08-03T10:35:04;36.10;91.60
16686;DHT22;8456;51.136;4.210;2022-08-03T10:37:33;36.30;91.50
16686;DHT22;8456;51.136;4.210;2022-08-03T10:40:01;36.30;91.60
16686;DHT22;8456;51.136;4.210;2022-08-03T10:42:28;36.30;91.20
16686;DHT22;8456;51.136;4.210;2022-08-03T10:45:06;36.10;91.20
16686;DHT22;8456;51.136;4.210;2022-08-03T10:47:34;36.00;91.20
16686;DHT22;8456;51.136;4.210;2022-08-03T10:50:01;35.80;91.40
16686;DHT22;8456;51.136;4.210;2022-08-03T10:52:31;35.80;91.50
16686;DHT22;8456;51.136;4.210;2022-08-03T10:54:56;35.80;92.00
16686;DHT22;8456;51.136;4.210;2022-08-03T10:57:49;35.70;91.70
16686;DHT22;8456;51.136;4.210;2022-08-03T11:00:22;35.80;91.90
16686;DHT22;8456;51.136;4.210;2022-08-03T11:03:07;35.70;92.10
16686;DHT22;8456;51.136;4.210;2022-08-03T11:05:41;35.70;91.80
16686;DHT22;8456;51.136;4.210;2022-08-03T11:10:42;35.30;91.90
16686;DHT22;8456;51.136;4.210;2022-08-03T11:13:08;34.80;92.20
16686;DHT22;8456;51.136;4.210;2022-08-03T11:15:36;34.90;92.40
16686;DHT22;8456;51.136;4.210;2022-08-03T11:18:10;34.90;92.50
16686;DHT22;8456;51.136;4.210;2022-08-03T11:20:49;34.90;92.40
16686;DHT22;8456;51.136;4.210;2022-08-03T11:23:16;34.70;92.90
16686;DHT22;8456;51.136;4.210;2022-08-03T11:26:08;34.70;92.60
16686;DHT22;8456;51.136;4.210;2022-08-03T11:28:34;34.60;92.50
16686;DHT22;8456;51.136;4.210;2022-08-03T11:34:05;34.50;92.90
16686;DHT22;8456;51.136;4.210;2022-08-03T11:39:39;34.30;92.80
16686;DHT22;8456;51.136;4.210;2022-08-03T11:44:51;34.20;93.30
16686;DHT22;8456;51.136;4.210;2022-08-03T11:47:17;34.10;92.90
16686;DHT22;8456;51.136;4.210;2022-08-03T11:49:48;34.10;92.90
16686;DHT22;8456;51.136;4.210;2022-08-03T11:52:15;34.10;93.30
16686;DHT22;8456;51.136;4.210;2022-08-03T11:54:41;34.20;93.50
16686;DHT22;8456;51.136;4.210;2022-08-03T11:57:08;34.30;93.40
16686;DHT22;8456;51.136;4.210;2022-08-03T11:59:36;34.30;93.20
16686;DHT22;8456;51.136;4.210;2022-08-03T12:02:12;34.30;93.60
16686;DHT22;8456;51.136;4.210;2022-08-03T12:04:55;34.30;92.70
16686;DHT22;8456;51.136;4.210;2022-08-03T12:07:24;34.30;93.00
16686;DHT22;8456;51.136;4.210;2022-08-03T12:10:06;34.40;93.90
16686;DHT22;8456;51.136;4.210;2022-08-03T12:12:31;34.40;93.90
16686;DHT22;8456;51.136;4.210;2022-08-03T12:14:57;34.40;93.00
16686;DHT22;8456;51.136;4.210;2022-08-03T12:17:31;34.40;93.20
16686;DHT22;8456;51.136;4.210;2022-08-03T12:19:57;34.50;93.20
16686;DHT22;8456;51.136;4.210;2022-08-03T12:22:32;34.60;92.60
16686;DHT22;8456;51.136;4.210;2022-08-03T12:24:58;34.50;92.30
16686;DHT22;8456;51.136;4.210;2022-08-03T12:27:24;34.60;92.30
16686;DHT22;8456;51.136;4.210;2022-08-03T12:29:55;34.50;92.60
16686;DHT22;8456;51.136;4.210;2022-08-03T12:32:21;34.40;92.50
16686;DHT22;8456;51.136;4.210;2022-08-03T12:34:48;34.30;92.60
16686;DHT22;8456;51.136;4.210;2022-08-03T12:37:17;34.30;92.80
16686;DHT22;8456;51.136;4.210;2022-08-03T12:39:52;34.20;92.70
16686;DHT22;8456;51.136;4.210;2022-08-03T12:42:18;34.10;93.00
16686;DHT22;8456;51.136;4.210;2022-08-03T12:44:44;34.00;93.30
16686;DHT22;8456;51.136;4.210;2022-08-03T12:47:11;34.30;93.40
16686;DHT22;8456;51.136;4.210;2022-08-03T12:49:53;34.40;93.30
16686;DHT22;8456;51.136;4.210;2022-08-03T12:52:21;34.50;92.30
16686;DHT22;8456;51.136;4.210;2022-08-03T12:54:58;34.50;92.40
16686;DHT22;8456;51.136;4.210;2022-08-03T12:57:24;34.50;92.30
16686;DHT22;8456;51.136;4.210;2022-08-03T12:59:50;34.50;92.20
16686;DHT22;8456;51.136;4.210;2022-08-03T13:02:22;34.50;92.50
16686;DHT22;8456;51.136;4.210;2022-08-03T13:04:49;34.40;91.80
16686;DHT22;8456;51.136;4.210;2022-08-03T13:07:16;34.40;92.10
16686;DHT22;8456;51.136;4.210;2022-08-03T13:09:50;34.30;91.80
16686;DHT22;8456;51.136;4.210;2022-08-03T13:12:19;34.30;92.70
16686;DHT22;8456;51.136;4.210;2022-08-03T13:14:47;34.30;92.10
16686;DHT22;8456;51.136;4.210;2022-08-03T13:17:13;34.30;91.70
16686;DHT22;8456;51.136;4.210;2022-08-03T13:19:41;34.30;91.90
16686;DHT22;8456;51.136;4.210;2022-08-03T13:22:15;34.30;92.40
16686;DHT22;8456;51.136;4.210;2022-08-03T13:24:42;34.30;91.80
16686;DHT22;8456;51.136;4.210;2022-08-03T13:27:08;34.30;92.30
16686;DHT22;8456;51.136;4.210;2022-08-03T13:29:34;34.40;92.10
16686;DHT22;8456;51.136;4.210;2022-08-03T13:32:01;34.30;91.90
16686;DHT22;8456;51.136;4.210;2022-08-03T13:34:26;34.30;92.20
16686;DHT22;8456;51.136;4.210;2022-08-03T13:36:52;34.30;92.60
16686;DHT22;8456;51.136;4.210;2022-08-03T13:39:18;34.20;92.40
16686;DHT22;8456;51.136;4.210;2022-08-03T13:41:47;34.10;92.60
16686;DHT22;8456;51.136;4.210;2022-08-03T13:44:13;34.10;92.60
16686;DHT22;8456;51.136;4.210;2022-08-03T13:46:39;34.10;92.00
16686;DHT22;8456;51.136;4.210;2022-08-03T13:49:05;34.00;92.00
16686;DHT22;8456;51.136;4.210;2022-08-03T13:51:32;34.00;92.50
16686;DHT22;8456;51.136;4.210;2022-08-03T13:53:58;33.80;92.30
16686;DHT22;8456;51.136;4.210;2022-08-03T13:56:25;33.70;92.70
16686;DHT22;8456;51.136;4.210;2022-08-03T13:58:51;33.60;92.60
16686;DHT22;8456;51.136;4.210;2022-08-03T14:01:17;33.60;92.50
16686;DHT22;8456;51.136;4.210;2022-08-03T14:03:43;33.60;92.80
16686;DHT22;8456;51.136;4.210;2022-08-03T14:06:09;33.70;92.60
16686;DHT22;8456;51.136;4.210;2022-08-03T14:08:35;33.70;93.20
16686;DHT22;8456;51.136;4.210;2022-08-03T14:11:01;33.70;92.80
16686;DHT22;8456;51.136;4.210;2022-08-03T14:13:26;33.80;92.50
16686;DHT22;8456;51.136;4.210;2022-08-03T14:15:52;33.90;92.70
16686;DHT22;8456;51.136;4.210;2022-08-03T14:18:20;34.00;92.70
16686;DHT22;8456;51.136;4.210;2022-08-03T14:20:46;34.00;92.30
16686;DHT22;8456;51.136;4.210;2022-08-03T14:23:13;34.20;92.30
16686;DHT22;8456;51.136;4.210;2022-08-03T14:25:39;34.10;92.20
16686;DHT22;8456;51.136;4.210;2022-08-03T14:28:06;34.00;92.30
16686;DHT22;8456;51.136;4.210;2022-08-03T14:30:32;34.10;92.40
16686;DHT22;8456;51.136;4.210;2022-08-03T14:32:58;34.10;92.00
16686;DHT22;8456;51.136;4.210;2022-08-03T14:35:24;34.20;92.20
16686;DHT22;8456;51.136;4.210;2022-08-03T14:37:50;34.10;91.80
16686;DHT22;8456;51.136;4.210;2022-08-03T14:40:17;34.10;92.10
16686;DHT22;8456;51.136;4.210;2022-08-03T14:42:42;34.10;91.90
16686;DHT22;8456;51.136;4.210;2022-08-03T14:45:08;34.10;91.60
16686;DHT22;8456;51.136;4.210;2022-08-03T14:47:34;34.20;92.10
16686;DHT22;8456;51.136;4.210;2022-08-03T14:50:00;34.30;92.00
16686;DHT22;8456;51.136;4.210;2022-08-03T14:52:29;34.40;92.10
16686;DHT22;8456;51.136;4.210;2022-08-03T14:54:55;34.50;91.90
16686;DHT22;8456;51.136;4.210;2022-08-03T14:57:21;34.60;91.20
16686;DHT22;8456;51.136;4.210;2022-08-03T14:59:47;34.50;90.80
16686;DHT22;8456;51.136;4.210;2022-08-03T15:02:12;34.50;91.40
16686;DHT22;8456;51.136;4.210;2022-08-03T15:04:39;34.60;91.20
16686;DHT22;8456;51.136;4.210;2022-08-03T15:07:04;34.40;91.20
16686;DHT22;8456;51.136;4.210;2022-08-03T15:09:31;34.40;91.20
16686;DHT22;8456;51.136;4.210;2022-08-03T15:11:57;34.30;91.40
16686;DHT22;8456;51.136;4.210;2022-08-03T15:14:23;34.30;91.40
16686;DHT22;8456;51.136;4.210;2022-08-03T15:16:49;34.00;91.80
16686;DHT22;8456;51.136;4.210;2022-08-03T15:19:15;34.10;91.60
16686;DHT22;8456;51.136;4.210;2022-08-03T15:21:41;33.90;91.70
16686;DHT22;8456;51.136;4.210;2022-08-03T15:24:07;33.80;92.10
16686;DHT22;8456;51.136;4.210;2022-08-03T15:26:33;33.70;91.60
16686;DHT22;8456;51.136;4.210;2022-08-03T15:28:59;33.70;91.40
16686;DHT22;8456;51.136;4.210;2022-08-03T15:31:24;33.70;91.80
16686;DHT22;8456;51.136;4.210;2022-08-03T15:33:50;33.80;91.70
16686;DHT22;8456;51.136;4.210;2022-08-03T15:36:17;33.90;91.90
16686;DHT22;8456;51.136;4.210;2022-08-03T15:38:43;33.90;91.00
16686;DHT22;8456;51.136;4.210;2022-08-03T15:41:09;34.00;91.60
16686;DHT22;8456;51.136;4.210;2022-08-03T15:43:35;34.10;91.00
16686;DHT22;8456;51.136;4.210;2022-08-03T15:46:00;34.00;90.70
16686;DHT22;8456;51.136;4.210;2022-08-03T15:48:26;34.00;90.90
16686;DHT22;8456;51.136;4.210;2022-08-03T15:50:52;33.90;90.20
16686;DHT22;8456;51.136;4.210;2022-08-03T15:53:19;33.80;90.90
16686;DHT22;8456;51.136;4.210;2022-08-03T15:55:45;33.70;91.10
16686;DHT22;8456;51.136;4.210;2022-08-03T15:58:11;33.60;90.90
16686;DHT22;8456;51.136;4.210;2022-08-03T16:00:37;33.50;90.50
16686;DHT22;8456;51.136;4.210;2022-08-03T16:03:04;33.40;90.90
16686;DHT22;8456;51.136;4.210;2022-08-03T16:05:29;33.40;91.00
16686;DHT22;8456;51.136;4.210;2022-08-03T16:07:55;33.50;91.40
16686;DHT22;8456;51.136;4.210;2022-08-03T16:10:21;33.50;91.50
16686;DHT22;8456;51.136;4.210;2022-08-03T16:12:47;33.60;91.30
16686;DHT22;8456;51.136;4.210;2022-08-03T16:15:14;33.50;91.50